Terminal Aerodrome Forecast
Issued by NWS Cleveland, OH

Home | Current Version | Previous Version | Graphics & Text | Print | Product List | Glossary Off
Versions: 1 2 3 4 5 6 7 8 9 10 11 12 13 14 15

000
FTUS41 KCLE 161700
TAFCAK
TAF
KCAK 161728Z 1618/1718 18010KT P6SM VCSH OVC035
      TEMPO 1618/1622 -SHRA OVC025
     FM162200 18010KT P6SM -SHRA OVC025
     FM170600 23008KT P6SM OVC008
     FM171700 30006KT P6SM OVC015=

USA.gov is the U.S. government's official web portal to all federal, state and local government web resources and services.